Time;durP1;ratioP1;P1;durP2;ratioP2;P2;SDS_P1;SDS_P2;PMS_P1;PMS_P2;Temp;Humidity;BMP_temperature;BMP_pressure;BME280_temperature;BME280_humidity;BME280_pressure;Samples;Min_cycle;Max_cycle;Signal;HPM_P1;HPM_P2
2021/08/03 00:02:00;;;;;;;26.77;5.97;;;;;;;11.41;92.72;100929.59;4892653;29;20059;-85
2021/08/03 00:04:43;;;;;;;28.65;5.72;;;;;;;11.48;92.94;100934.28;4872787;29;20671;-83
2021/08/03 00:07:11;;;;;;;25.55;5.15;;;;;;;11.45;93.04;100917.44;4876931;29;20036;-84
2021/08/03 00:09:38;;;;;;;20.90;5.63;;;;;;;11.52;92.95;100922.97;4890737;29;22394;-83
2021/08/03 00:12:06;;;;;;;20.33;5.40;;;;;;;11.51;93.40;100924.00;4892022;29;20076;-84
2021/08/03 00:14:32;;;;;;;26.98;6.47;;;;;;;11.56;92.94;100918.06;4890067;29;20036;-82
2021/08/03 00:16:57;;;;;;;19.33;5.70;;;;;;;11.55;92.80;100914.53;4890459;29;20036;-85
2021/08/03 00:19:24;;;;;;;18.10;5.55;;;;;;;11.50;92.88;100908.00;4878396;29;20040;-84
2021/08/03 00:21:50;;;;;;;23.13;6.13;;;;;;;11.54;93.01;100923.66;4875540;29;20032;-82
2021/08/03 00:24:16;;;;;;;28.40;5.57;;;;;;;11.55;92.95;100925.31;4891135;29;20021;-84
2021/08/03 00:26:42;;;;;;;24.75;6.65;;;;;;;11.60;93.05;100919.41;4877541;29;20485;-82
2021/08/03 00:29:08;;;;;;;26.65;5.85;;;;;;;11.60;93.48;100911.31;4889930;29;20051;-83
2021/08/03 00:31:34;;;;;;;30.40;6.07;;;;;;;11.58;93.46;100908.78;4873486;29;20726;-81
2021/08/03 00:34:00;;;;;;;32.30;6.32;;;;;;;11.69;93.32;100921.00;4891547;29;20071;-84
2021/08/03 00:36:29;;;;;;;29.60;6.43;;;;;;;11.60;93.41;100895.16;4889429;29;20449;-82
2021/08/03 00:38:54;;;;;;;30.50;5.25;;;;;;;11.72;93.60;100915.25;4873979;29;20033;-82
2021/08/03 00:41:23;;;;;;;32.80;6.40;;;;;;;11.62;94.07;100907.44;4895128;29;20122;-83
2021/08/03 00:43:48;;;;;;;28.65;6.50;;;;;;;11.70;94.04;100913.78;4895360;29;20032;-82
2021/08/03 00:46:14;;;;;;;30.77;5.97;;;;;;;11.66;94.25;100899.81;4895685;29;20549;-85
2021/08/03 00:48:39;;;;;;;26.80;5.75;;;;;;;11.75;94.13;100911.34;4896141;29;20032;-84
2021/08/03 00:51:05;;;;;;;29.90;6.13;;;;;;;11.75;94.57;100904.16;4891790;29;20031;-83
2021/08/03 00:53:30;;;;;;;31.92;5.15;;;;;;;11.76;94.50;100907.66;4899710;29;20048;-80
2021/08/03 00:55:57;;;;;;;22.63;5.88;;;;;;;11.75;94.49;100897.88;4877363;29;20119;-84
2021/08/03 00:58:23;;;;;;;24.90;5.47;;;;;;;11.78;94.68;100903.78;4897612;29;20638;-83
2021/08/03 01:00:48;;;;;;;38.97;7.03;;;;;;;11.83;94.76;100900.56;4892210;29;20139;-80
2021/08/03 01:03:14;;;;;;;30.45;5.65;;;;;;;11.84;94.86;100886.88;4890720;29;20024;-80
2021/08/03 01:06:06;;;;;;;29.13;5.88;;;;;;;11.90;94.63;100890.72;4875356;29;20119;-81
2021/08/03 01:09:00;;;;;;;29.10;5.95;;;;;;;11.83;94.58;100879.00;4903012;29;20028;-83
2021/08/03 01:11:51;;;;;;;25.38;5.00;;;;;;;11.74;94.72;100867.44;4891832;29;20040;-82
2021/08/03 01:14:19;;;;;;;21.33;5.88;;;;;;;11.85;94.67;100883.19;4884746;29;20493;-83
2021/08/03 01:16:49;;;;;;;26.42;5.40;;;;;;;11.82;94.62;100875.44;4892319;29;20036;-81
2021/08/03 01:19:35;;;;;;;24.63;5.80;;;;;;;11.85;95.03;100880.50;4895281;29;20028;-85
2021/08/03 01:22:08;;;;;;;23.20;5.15;;;;;;;11.84;94.87;100878.78;4894136;29;20035;-83
2021/08/03 01:25:14;;;;;;;29.60;5.95;;;;;;;11.84;95.40;100869.88;4887531;29;20029;-84
2021/08/03 01:27:45;;;;;;;22.88;5.35;;;;;;;11.85;95.42;100866.16;4899848;29;20032;-84
2021/08/03 01:30:11;;;;;;;25.17;6.55;;;;;;;11.82;95.19;100861.97;4905830;29;20059;-83
2021/08/03 01:32:42;;;;;;;33.65;7.68;;;;;;;11.89;95.21;100867.53;4889082;29;20106;-83
2021/08/03 01:35:08;;;;;;;30.40;5.88;;;;;;;11.87;95.42;100859.59;4896196;29;20531;-84
2021/08/03 01:37:34;;;;;;;33.75;6.30;;;;;;;11.92;95.41;100869.00;4899365;29;20060;-84
2021/08/03 01:40:03;;;;;;;36.28;6.25;;;;;;;11.93;95.39;100855.34;4893042;29;20110;-84
2021/08/03 01:42:29;;;;;;;37.60;6.35;;;;;;;11.93;95.28;100857.19;4880416;29;20033;-84
2021/08/03 01:44:57;;;;;;;34.75;6.47;;;;;;;11.88;95.50;100839.75;4884664;29;20044;-84
2021/08/03 01:47:24;;;;;;;27.83;5.38;;;;;;;11.98;95.53;100854.78;4896776;29;20036;-83
2021/08/03 01:49:50;;;;;;;35.47;6.20;;;;;;;11.91;95.73;100832.28;4879642;29;20132;-84
2021/08/03 01:52:16;;;;;;;38.90;6.38;;;;;;;11.89;96.14;100835.19;4879298;29;20581;-83
2021/08/03 01:54:44;;;;;;;39.92;6.80;;;;;;;12.03;95.81;100855.91;4875425;29;20037;-84
2021/08/03 01:57:11;;;;;;;28.15;6.40;;;;;;;12.01;95.93;100844.50;4897123;29;21938;-83
2021/08/03 01:59:38;;;;;;;27.65;6.80;;;;;;;11.98;95.64;100836.78;4882299;29;20367;-84
2021/08/03 02:02:04;;;;;;;31.20;7.55;;;;;;;12.02;95.74;100839.94;4883516;29;20501;-83
2021/08/03 02:04:30;;;;;;;24.70;6.10;;;;;;;12.02;95.58;100834.56;4878613;29;20049;-84
2021/08/03 02:06:56;;;;;;;29.40;6.75;;;;;;;12.00;95.26;100842.00;4882178;29;20029;-84
2021/08/03 02:09:22;;;;;;;28.08;7.25;;;;;;;12.03;95.94;100841.63;4894792;29;20080;-84
2021/08/03 02:11:48;;;;;;;33.55;6.72;;;;;;;12.06;95.69;100843.94;4891204;29;20032;-85
2021/08/03 02:14:14;;;;;;;20.75;6.32;;;;;;;12.04;95.93;100844.16;4878166;29;20028;-82
2021/08/03 02:16:39;;;;;;;23.90;6.60;;;;;;;12.04;95.70;100843.28;4889070;29;20032;-81
2021/08/03 02:19:05;;;;;;;20.30;6.53;;;;;;;12.03;96.03;100847.00;4895115;29;20039;-80
2021/08/03 02:21:30;;;;;;;13.10;6.68;;;;;;;12.02;95.93;100837.25;4895411;29;20025;-84
2021/08/03 02:23:56;;;;;;;20.05;6.68;;;;;;;12.01;95.91;100835.56;4888513;29;20024;-82
2021/08/03 02:26:22;;;;;;;15.52;6.05;;;;;;;12.02;95.88;100846.19;4869206;29;20028;-82
2021/08/03 02:28:48;;;;;;;16.55;5.60;;;;;;;12.02;95.88;100839.94;4891072;29;20032;-83
2021/08/03 02:31:45;;;;;;;21.58;7.30;;;;;;;12.07;95.90;100838.38;4893240;29;20044;-85
2021/08/03 02:34:28;;;;;;;19.35;6.75;;;;;;;12.07;96.04;100840.25;4874953;29;20060;-85
2021/08/03 02:36:58;;;;;;;18.52;6.32;;;;;;;12.04;95.71;100833.38;4877432;29;20510;-83
2021/08/03 02:39:25;;;;;;;22.00;6.80;;;;;;;12.07;96.04;100832.16;4889440;29;20042;-83
2021/08/03 02:41:50;;;;;;;23.17;6.95;;;;;;;12.04;95.88;100825.28;4882811;29;20039;-84
2021/08/03 02:44:18;;;;;;;20.70;6.57;;;;;;;12.08;95.92;100831.97;4873678;29;20036;-83
2021/08/03 02:46:45;;;;;;;30.45;7.38;;;;;;;12.07;95.75;100821.38;4897962;29;20028;-84
2021/08/03 02:49:16;;;;;;;22.55;7.30;;;;;;;12.08;96.14;100823.88;4895139;29;20028;-85
2021/08/03 02:51:42;;;;;;;21.85;6.65;;;;;;;12.03;95.76;100825.44;4881848;29;20024;-84
2021/08/03 02:54:16;;;;;;;20.00;7.18;;;;;;;12.00;96.12;100831.22;4908393;29;20035;-82
2021/08/03 02:56:42;;;;;;;20.65;6.72;;;;;;;11.97;96.07;100821.63;4895942;29;20520;-83
2021/08/03 02:59:10;;;;;;;27.85;7.15;;;;;;;12.00;95.82;100825.81;4892085;29;20036;-82
2021/08/03 03:01:38;;;;;;;27.35;7.43;;;;;;;12.05;95.67;100820.72;4897047;29;20032;-83
2021/08/03 03:04:11;;;;;;;25.05;6.50;;;;;;;12.07;95.88;100821.38;4891681;29;20029;-83
2021/08/03 03:06:37;;;;;;;19.38;6.88;;;;;;;12.09;95.74;100825.56;4891117;29;20117;-84
2021/08/03 03:09:03;;;;;;;19.98;6.22;;;;;;;12.10;95.84;100826.41;4888263;29;20036;-83
2021/08/03 03:11:30;;;;;;;21.13;7.32;;;;;;;12.04;95.59;100816.31;4879256;29;20028;-84
2021/08/03 03:13:58;;;;;;;17.98;6.43;;;;;;;12.10;95.66;100821.84;4874455;29;20124;-83
2021/08/03 03:16:25;;;;;;;13.77;6.22;;;;;;;12.07;95.47;100830.28;4878131;29;20036;-82
2021/08/03 03:18:51;;;;;;;25.23;7.15;;;;;;;12.10;95.56;100821.84;4896254;29;20036;-83
2021/08/03 03:21:18;;;;;;;17.23;6.72;;;;;;;12.09;95.40;100814.78;4880548;29;20041;-84
2021/08/03 03:23:44;;;;;;;14.32;6.13;;;;;;;12.13;95.47;100823.31;4894441;29;20025;-84
2021/08/03 03:26:10;;;;;;;16.90;7.03;;;;;;;12.10;95.22;100819.13;4904686;29;20114;-83
2021/08/03 03:28:37;;;;;;;14.18;6.97;;;;;;;12.18;95.16;100822.78;4895632;29;20135;-83
2021/08/03 03:31:04;;;;;;;18.02;6.13;;;;;;;12.16;95.12;100820.25;4896350;29;20031;-84
2021/08/03 03:33:30;;;;;;;17.77;6.55;;;;;;;12.14;95.13;100818.75;4900584;29;20025;-84
2021/08/03 03:35:59;;;;;;;19.60;7.10;;;;;;;12.16;95.03;100817.56;4882491;29;20044;-83
2021/08/03 03:38:30;;;;;;;28.38;7.93;;;;;;;12.17;94.66;100819.25;4893024;29;20031;-84
2021/08/03 03:40:57;;;;;;;34.78;9.55;;;;;;;12.14;94.64;100813.38;4897380;29;20024;-83
2021/08/03 03:43:22;;;;;;;30.05;7.72;;;;;;;11.99;94.42;100794.50;4897749;29;20025;-83
2021/08/03 03:46:13;;;;;;;32.45;8.32;;;;;;;12.06;94.11;100812.44;4897619;29;20055;-83
2021/08/03 03:48:45;;;;;;;28.67;8.20;;;;;;;11.99;94.51;100794.50;4893076;29;20063;-83
2021/08/03 03:51:16;;;;;;;29.85;9.35;;;;;;;11.97;94.27;100797.38;4889310;29;20023;-83
2021/08/03 03:53:55;;;;;;;27.17;7.80;;;;;;;11.93;94.43;100797.91;4894409;29;20463;-84
2021/08/03 03:56:24;;;;;;;28.27;7.60;;;;;;;11.92;94.54;100796.25;4875831;29;20948;-83
2021/08/03 03:58:54;;;;;;;22.15;8.23;;;;;;;11.85;94.19;100799.66;4897787;29;20029;-83
2021/08/03 04:01:24;;;;;;;27.25;6.75;;;;;;;11.86;94.36;100797.84;4885913;29;20051;-83
2021/08/03 04:03:51;;;;;;;27.75;8.07;;;;;;;11.56;94.29;100754.63;4892866;29;20021;-83
2021/08/03 04:06:17;;;;;;;23.20;7.63;;;;;;;11.73;94.42;100786.81;4874946;29;20024;-84
2021/08/03 04:08:42;;;;;;;20.13;7.30;;;;;;;11.68;94.59;100795.44;4876479;29;20137;-81
2021/08/03 04:11:13;;;;;;;17.50;6.78;;;;;;;11.64;95.02;100791.41;4896001;29;20090;-86
2021/08/03 04:13:40;;;;;;;19.73;7.53;;;;;;;11.59;94.89;100788.44;4894212;29;20166;-84
2021/08/03 04:16:06;;;;;;;17.80;7.05;;;;;;;11.56;94.89;100794.19;4889656;29;20036;-84
2021/08/03 04:18:31;;;;;;;20.58;7.65;;;;;;;11.55;95.18;100793.34;4890606;29;20029;-83
2021/08/03 04:20:57;;;;;;;17.33;6.47;;;;;;;11.55;95.38;100789.84;4889221;29;20040;-83
2021/08/03 04:23:22;;;;;;;17.08;6.90;;;;;;;11.56;94.89;100791.50;4885154;29;20129;-85
2021/08/03 04:25:48;;;;;;;19.05;6.22;;;;;;;11.54;95.53;100798.94;4876710;29;20035;-81
2021/08/03 04:28:13;;;;;;;21.27;6.65;;;;;;;11.50;95.36;100794.91;4880532;29;20024;-83
2021/08/03 04:30:39;;;;;;;14.10;5.90;;;;;;;11.43;95.23;100792.09;4886561;29;20532;-82
2021/08/03 04:33:04;;;;;;;17.55;6.10;;;;;;;11.47;95.04;100798.81;4876843;29;20043;-83
2021/08/03 04:35:29;;;;;;;18.83;6.00;;;;;;;11.46;95.34;100799.84;4881138;29;20025;-84
2021/08/03 04:37:55;;;;;;;17.15;6.13;;;;;;;11.42;95.36;100796.66;4894848;29;20088;-83
2021/08/03 04:40:22;;;;;;;24.85;6.35;;;;;;;11.41;95.45;100791.47;4898497;29;20032;-84
2021/08/03 04:42:48;;;;;;;20.70;6.18;;;;;;;11.42;95.69;100795.81;4882168;29;20063;-83
2021/08/03 04:45:13;;;;;;;15.85;6.07;;;;;;;11.43;95.56;100792.97;4883402;29;20037;-83
2021/08/03 04:47:47;;;;;;;15.35;5.70;;;;;;;11.42;95.86;100790.44;4890022;29;20552;-83
2021/08/03 04:50:15;;;;;;;14.45;5.45;;;;;;;11.39;95.76;100788.94;4895690;29;20025;-84
2021/08/03 04:52:41;;;;;;;24.25;6.32;;;;;;;11.41;95.88;100792.28;4891501;29;20040;-83
2021/08/03 04:55:08;;;;;;;22.58;5.65;;;;;;;11.36;95.96;100778.53;4900537;29;20028;-83
2021/08/03 04:57:33;;;;;;;25.70;6.13;;;;;;;11.41;96.14;100788.78;4900953;29;20028;-84
2021/08/03 04:59:59;;;;;;;27.85;6.65;;;;;;;11.51;95.64;100799.28;4899638;29;20079;-84
2021/08/03 05:02:25;;;;;;;31.63;7.47;;;;;;;11.49;95.91;100788.72;4878710;29;21703;-83
2021/08/03 05:04:50;;;;;;;18.95;6.38;;;;;;;11.55;95.97;100796.03;4882834;29;20401;-84
2021/08/03 05:07:15;;;;;;;30.38;6.75;;;;;;;11.57;95.63;100793.19;4876358;29;20057;-83
2021/08/03 05:09:41;;;;;;;22.73;6.22;;;;;;;11.55;95.81;100795.22;4876349;29;20036;-84
2021/08/03 05:12:06;;;;;;;26.23;6.63;;;;;;;11.51;95.73;100777.72;4896338;29;20040;-83
2021/08/03 05:14:32;;;;;;;20.25;5.95;;;;;;;11.58;95.75;100782.22;4876583;29;20032;-83
2021/08/03 05:16:57;;;;;;;20.83;5.95;;;;;;;11.58;95.88;100793.00;4874740;29;20032;-83
2021/08/03 05:19:23;;;;;;;25.30;5.72;;;;;;;11.54;95.74;100783.63;4892383;29;20449;-84
2021/08/03 05:21:48;;;;;;;22.70;6.63;;;;;;;11.56;95.68;100784.25;4879972;29;20028;-83
2021/08/03 05:24:14;;;;;;;20.33;5.85;;;;;;;11.59;95.75;100793.81;4885371;29;20099;-83
2021/08/03 05:26:39;;;;;;;17.83;5.60;;;;;;;11.60;95.84;100792.81;4895458;29;20024;-84
2021/08/03 05:29:05;;;;;;;23.70;5.82;;;;;;;11.62;95.51;100798.88;4899010;29;20043;-83
2021/08/03 05:31:30;;;;;;;16.52;6.03;;;;;;;11.66;95.66;100794.78;4882456;29;20033;-83
2021/08/03 05:33:55;;;;;;;22.85;6.05;;;;;;;11.70;95.47;100792.56;4887221;29;20028;-84
2021/08/03 05:36:21;;;;;;;20.08;6.28;;;;;;;11.70;95.32;100785.31;4897128;29;20029;-84
2021/08/03 05:38:46;;;;;;;18.05;7.25;;;;;;;11.71;95.35;100789.69;4895886;29;20055;-84
2021/08/03 05:41:12;;;;;;;19.10;5.57;;;;;;;11.74;95.22;100793.88;4894112;29;20428;-83
2021/08/03 05:43:37;;;;;;;16.38;5.63;;;;;;;11.71;94.92;100789.69;4880568;29;20029;-83
2021/08/03 05:46:03;;;;;;;18.88;6.00;;;;;;;11.74;95.50;100793.88;4893994;29;20029;-84
2021/08/03 05:48:28;;;;;;;19.77;6.03;;;;;;;11.75;95.20;100799.09;4887273;29;20033;-82
2021/08/03 05:50:53;;;;;;;16.63;5.93;;;;;;;11.70;95.21;100793.41;4894248;29;21583;-84
2021/08/03 05:53:19;;;;;;;14.88;5.88;;;;;;;11.65;95.21;100791.25;4893648;29;20024;-82
2021/08/03 05:55:44;;;;;;;16.88;5.63;;;;;;;11.57;95.02;100777.03;4880584;29;20089;-83
2021/08/03 05:58:10;;;;;;;15.50;5.50;;;;;;;11.57;95.08;100785.09;4894961;29;20024;-83
2021/08/03 06:00:37;;;;;;;21.63;5.75;;;;;;;11.57;95.11;100785.09;4890276;29;20025;-83
2021/08/03 06:03:03;;;;;;;35.88;7.05;;;;;;;11.59;95.01;100788.44;4893690;29;20039;-85
2021/08/03 06:05:30;;;;;;;10.82;5.18;;;;;;;11.62;94.76;100788.94;4882186;29;20028;-83
2021/08/03 06:07:57;;;;;;;15.60;5.47;;;;;;;11.67;94.77;100785.69;4871760;29;20041;-83
2021/08/03 06:10:25;;;;;;;10.65;4.68;;;;;;;11.63;94.65;100781.69;4877132;29;20028;-84
2021/08/03 06:12:54;;;;;;;15.63;5.07;;;;;;;11.60;94.92;100777.50;4894277;29;20393;-84
2021/08/03 06:15:19;;;;;;;12.40;4.75;;;;;;;11.66;94.78;100784.00;4875344;29;20028;-85
2021/08/03 06:17:50;;;;;;;11.55;5.20;;;;;;;11.71;94.61;100784.28;4893871;29;20116;-83
2021/08/03 06:20:16;;;;;;;10.35;4.78;;;;;;;11.77;94.61;100777.34;4892424;29;20020;-81
2021/08/03 06:22:41;;;;;;;10.02;4.28;;;;;;;11.77;94.34;100780.84;4891661;29;20032;-81
2021/08/03 06:25:09;;;;;;;9.35;4.80;;;;;;;11.69;94.39;100774.72;4898886;29;20048;-83
2021/08/03 06:27:34;;;;;;;9.70;4.93;;;;;;;11.77;94.58;100788.09;4884571;29;20141;-84
2021/08/03 06:30:02;;;;;;;10.45;4.18;;;;;;;11.84;94.35;100784.50;4893414;29;20551;-85
2021/08/03 06:32:29;;;;;;;8.95;4.97;;;;;;;11.87;94.42;100773.38;4879923;29;20484;-85
2021/08/03 06:34:55;;;;;;;9.45;4.60;;;;;;;11.95;94.14;100782.41;4894804;29;20029;-84
2021/08/03 06:37:21;;;;;;;8.27;4.18;;;;;;;11.90;94.20;100763.25;4883714;29;20025;-83
2021/08/03 06:39:46;;;;;;;7.65;4.07;;;;;;;12.00;94.27;100777.31;4878607;29;20043;-84
2021/08/03 06:42:34;;;;;;;9.75;4.68;;;;;;;12.11;93.96;100776.84;4894685;29;20020;-86
2021/08/03 06:45:11;;;;;;;10.02;4.90;;;;;;;12.19;94.14;100781.31;4879025;29;20067;-85
2021/08/03 06:48:03;;;;;;;7.97;3.85;;;;;;;12.18;93.98;100775.09;4894898;29;20071;-84
2021/08/03 06:50:31;;;;;;;11.70;4.20;;;;;;;12.25;93.84;100770.63;4895134;29;20084;-84
2021/08/03 06:52:58;;;;;;;9.32;4.40;;;;;;;12.38;93.41;100779.91;4905939;29;20040;-83
2021/08/03 06:55:28;;;;;;;9.07;4.68;;;;;;;12.35;93.23;100767.63;4904323;29;20052;-85
2021/08/03 06:57:54;;;;;;;15.63;5.25;;;;;;;12.51;92.97;100777.38;4897300;29;20028;-84
2021/08/03 07:00:21;;;;;;;18.73;5.53;;;;;;;12.50;93.07;100773.03;4894456;29;20032;-84
2021/08/03 07:02:48;;;;;;;18.48;6.00;;;;;;;12.47;93.20;100768.84;4893675;29;20883;-82
2021/08/03 07:05:27;;;;;;;16.38;5.50;;;;;;;12.56;93.07;100776.81;4874932;29;20029;-83
2021/08/03 07:07:58;;;;;;;22.33;6.00;;;;;;;12.68;93.30;100786.94;4900707;29;20405;-83
2021/08/03 07:10:23;;;;;;;19.38;6.25;;;;;;;12.76;92.98;100786.84;4892521;29;20029;-84
2021/08/03 07:12:49;;;;;;;17.60;5.78;;;;;;;12.79;93.11;100774.00;4878872;29;20039;-83
2021/08/03 07:15:15;;;;;;;24.23;6.97;;;;;;;12.87;92.57;100772.00;4894008;29;20111;-83
2021/08/03 07:17:42;;;;;;;31.23;6.97;;;;;;;13.06;92.74;100783.22;4891321;29;20032;-84
2021/08/03 07:20:09;;;;;;;24.52;7.55;;;;;;;13.02;92.38;100766.59;4885831;29;20143;-83
2021/08/03 07:22:36;;;;;;;22.05;7.50;;;;;;;13.13;92.62;100773.34;4894739;29;20035;-84
2021/08/03 07:25:03;;;;;;;18.63;7.28;;;;;;;13.18;92.29;100776.28;4885199;29;20029;-83
2021/08/03 07:27:29;;;;;;;20.88;7.80;;;;;;;13.19;92.23;100777.94;4890521;29;20036;-84
2021/08/03 07:29:55;;;;;;;19.17;8.10;;;;;;;13.20;91.99;100779.63;4890329;29;20391;-83
2021/08/03 07:32:20;;;;;;;19.65;8.43;;;;;;;13.12;92.06;100761.69;4876076;29;20051;-85
2021/08/03 07:34:46;;;;;;;18.40;7.40;;;;;;;13.26;91.99;100778.00;4875143;29;20494;-84
2021/08/03 07:37:11;;;;;;;20.50;9.18;;;;;;;13.39;92.19;100779.03;4892188;29;20038;-84
2021/08/03 07:39:39;;;;;;;18.92;8.10;;;;;;;13.66;91.86;100781.13;4896291;29;20136;-85
2021/08/03 07:42:07;;;;;;;18.92;7.75;;;;;;;13.80;91.39;100777.47;4892328;29;20032;-82
2021/08/03 07:44:33;;;;;;;22.23;8.35;;;;;;;13.95;91.00;100774.69;4893048;29;20040;-86
2021/08/03 07:46:59;;;;;;;21.38;8.63;;;;;;;14.03;90.73;100778.06;4894135;29;20043;-86
2021/08/03 07:49:25;;;;;;;20.67;9.15;;;;;;;14.14;90.16;100767.72;4895810;29;20028;-85
2021/08/03 07:51:53;;;;;;;22.25;9.35;;;;;;;14.14;90.29;100775.84;4892268;29;20056;-85
2021/08/03 07:54:19;;;;;;;21.00;9.23;;;;;;;13.98;90.13;100756.19;4900385;29;20949;-83
2021/08/03 07:56:46;;;;;;;20.17;8.40;;;;;;;14.15;90.05;100791.84;4882241;29;20873;-86
2021/08/03 07:59:11;;;;;;;19.35;8.45;;;;;;;14.12;89.50;100789.53;4899843;29;20028;-86
2021/08/03 08:01:37;;;;;;;18.30;8.15;;;;;;;14.13;89.53;100795.78;4892392;29;20109;-83
2021/08/03 08:04:03;;;;;;;23.77;8.13;;;;;;;14.12;89.32;100796.81;4883531;29;20386;-83
2021/08/03 08:06:28;;;;;;;19.80;8.65;;;;;;;14.11;89.30;100789.75;4883694;29;20032;-83
2021/08/03 08:08:54;;;;;;;16.55;7.95;;;;;;;14.25;88.99;100794.19;4885486;29;20024;-83
2021/08/03 08:11:19;;;;;;;20.10;7.07;;;;;;;14.30;88.75;100792.56;4898901;29;20038;-85
2021/08/03 08:13:44;;;;;;;17.02;7.10;;;;;;;14.34;88.98;100786.75;4880810;29;20712;-83
2021/08/03 08:16:10;;;;;;;23.45;9.00;;;;;;;14.40;88.46;100794.91;4897602;29;20028;-83
2021/08/03 08:18:36;;;;;;;20.67;8.80;;;;;;;14.45;88.22;100800.56;4900664;29;20690;-85
2021/08/03 08:21:03;;;;;;;23.02;8.57;;;;;;;14.51;87.32;100788.09;4877291;29;20033;-85
2021/08/03 08:23:28;;;;;;;19.80;8.43;;;;;;;14.66;86.66;100787.97;4891043;29;20351;-83
2021/08/03 08:25:53;;;;;;;20.55;8.02;;;;;;;14.72;86.90;100788.00;4900806;29;20027;-83
2021/08/03 08:28:19;;;;;;;18.55;7.93;;;;;;;14.80;87.02;100795.13;4899877;29;20115;-83
2021/08/03 08:30:44;;;;;;;20.92;7.85;;;;;;;14.82;86.54;100794.91;4889715;29;20029;-84
2021/08/03 08:33:10;;;;;;;15.05;7.78;;;;;;;14.90;86.74;100792.88;4887942;29;20020;-83
2021/08/03 08:35:36;;;;;;;17.02;7.18;;;;;;;14.93;86.83;100800.59;4898337;29;20028;-83
2021/08/03 08:38:02;;;;;;;19.77;8.35;;;;;;;14.98;86.30;100797.28;4889133;29;20028;-84
2021/08/03 08:40:27;;;;;;;19.45;8.50;;;;;;;14.99;85.98;100793.53;4903372;29;20470;-85
2021/08/03 08:42:52;;;;;;;19.83;8.95;;;;;;;15.02;85.91;100797.69;4904928;29;20545;-83
2021/08/03 08:45:18;;;;;;;20.38;8.95;;;;;;;15.09;85.64;100796.69;4901629;29;20028;-82
2021/08/03 08:47:45;;;;;;;20.02;8.70;;;;;;;15.13;85.58;100784.38;4898553;29;20365;-85
2021/08/03 08:50:12;;;;;;;16.50;7.68;;;;;;;15.35;85.21;100800.47;4868708;29;20461;-82
2021/08/03 08:52:39;;;;;;;19.30;7.30;;;;;;;15.49;84.90;100795.91;4903224;29;20038;-84
2021/08/03 08:55:06;;;;;;;18.95;8.50;;;;;;;15.60;83.92;100776.31;4884985;29;20024;-81
2021/08/03 08:57:32;;;;;;;19.95;8.25;;;;;;;15.67;83.30;100787.16;4886728;29;20114;-83
2021/08/03 08:59:57;;;;;;;15.32;7.55;;;;;;;15.57;82.56;100782.16;4907029;29;20111;-84
2021/08/03 09:02:41;;;;;;;17.98;8.45;;;;;;;15.56;82.15;100791.34;4892022;29;20550;-82
2021/08/03 09:05:08;;;;;;;19.40;7.88;;;;;;;15.56;82.25;100791.34;4904673;29;20035;-83
2021/08/03 09:07:54;;;;;;;20.20;7.22;;;;;;;15.52;82.16;100780.06;4900578;29;20085;-84
2021/08/03 09:10:45;;;;;;;18.70;7.38;;;;;;;15.48;82.06;100786.09;4886832;29;20031;-85
2021/08/03 09:13:17;;;;;;;19.35;8.05;;;;;;;15.46;82.13;100780.06;4903952;29;20104;-85
2021/08/03 09:15:44;;;;;;;20.38;7.47;;;;;;;15.49;81.80;100780.47;4909603;29;20060;-85
2021/08/03 09:18:30;;;;;;;16.98;7.53;;;;;;;15.51;81.69;100772.16;4880752;29;20024;-83
2021/08/03 09:20:58;;;;;;;16.77;7.32;;;;;;;15.71;81.57;100775.72;4886778;29;20096;-83
2021/08/03 09:23:40;;;;;;;17.80;7.43;;;;;;;16.14;80.70;100767.13;4898229;29;20457;-85
2021/08/03 09:26:06;;;;;;;18.20;8.48;;;;;;;16.33;79.67;100761.84;4893431;29;20083;-83
2021/08/03 09:28:31;;;;;;;19.38;7.75;;;;;;;16.45;78.77;100762.84;4901388;29;20502;-83
2021/08/03 09:30:57;;;;;;;14.35;7.10;;;;;;;16.75;77.88;100767.72;4899356;29;20040;-84
2021/08/03 09:33:26;;;;;;;14.38;7.35;;;;;;;16.76;76.85;100747.69;4905652;29;20516;-84
2021/08/03 09:35:53;;;;;;;20.67;8.27;;;;;;;16.94;76.78;100760.56;4898632;29;20508;-83
2021/08/03 09:38:20;;;;;;;18.38;7.70;;;;;;;16.90;76.30;100749.28;4904237;29;20032;-83
2021/08/03 09:40:48;;;;;;;20.42;8.10;;;;;;;16.78;76.21;100723.91;4898815;29;20115;-85
2021/08/03 09:43:15;;;;;;;21.85;10.23;;;;;;;17.09;75.96;100763.81;4876633;29;20031;-83
2021/08/03 09:45:43;;;;;;;14.75;8.10;;;;;;;17.08;75.26;100773.00;4908557;29;20020;-85
2021/08/03 09:48:13;;;;;;;15.30;8.10;;;;;;;17.06;73.85;100765.06;4908913;29;20036;-84
2021/08/03 09:51:05;;;;;;;15.48;7.32;;;;;;;16.97;73.03;100762.84;4892042;29;20446;-84
2021/08/03 09:53:40;;;;;;;;;;;;;;;17.03;72.91;100760.06;4907605;29;20028;-84
2021/08/03 09:56:07;;;;;;;15.35;7.55;;;;;;;17.28;72.50;100748.41;4904939;29;19915;-85
2021/08/03 09:58:33;;;;;;;20.33;8.38;;;;;;;17.85;71.75;100757.38;4896994;29;20017;-85
2021/08/03 10:01:28;;;;;;;16.25;8.30;;;;;;;18.26;69.77;100747.75;4900722;29;20043;-85
2021/08/03 10:03:55;;;;;;;17.67;7.57;;;;;;;18.51;69.17;100750.38;4905965;29;20040;-85
2021/08/03 10:06:21;;;;;;;20.13;7.88;;;;;;;18.41;69.06;100748.19;4882386;29;20047;-85
2021/08/03 10:08:48;;;;;;;17.73;8.45;;;;;;;18.05;68.78;100734.56;4895836;29;20501;-85
2021/08/03 10:11:15;;;;;;;16.63;9.38;;;;;;;18.14;68.03;100747.66;4908687;29;20590;-84
2021/08/03 10:13:42;;;;;;;18.90;8.80;;;;;;;17.89;69.01;100741.44;4904756;29;20448;-85
2021/08/03 10:16:08;;;;;;;19.25;9.18;;;;;;;17.96;68.52;100725.88;4903986;29;20477;-85
2021/08/03 10:18:33;;;;;;;19.15;7.65;;;;;;;18.16;68.22;100740.13;4901377;29;20107;-84
2021/08/03 10:21:00;;;;;;;15.98;8.73;;;;;;;18.33;68.53;100739.50;4907938;29;20028;-85
2021/08/03 10:23:25;;;;;;;16.25;8.70;;;;;;;18.60;67.10;100729.97;4907118;29;20027;-85
2021/08/03 10:25:51;;;;;;;20.98;8.70;;;;;;;19.16;66.55;100741.56;4904253;29;20032;-85
2021/08/03 10:28:18;;;;;;;20.63;8.50;;;;;;;19.53;65.19;100736.78;4908001;29;20016;-85
2021/08/03 10:30:44;;;;;;;17.67;9.45;;;;;;;19.63;63.79;100738.88;4900497;29;20035;-85
2021/08/03 10:33:39;;;;;;;17.20;8.60;;;;;;;19.72;64.05;100740.25;4878373;29;20033;-85
2021/08/03 10:36:04;;;;;;;14.23;7.43;;;;;;;20.08;62.92;100727.41;4899239;29;20028;-85
2021/08/03 10:38:29;;;;;;;17.83;8.15;;;;;;;20.38;62.19;100742.78;4891778;29;20442;-84
2021/08/03 10:40:56;;;;;;;18.92;8.05;;;;;;;20.66;60.54;100733.00;4905701;29;20439;-84
2021/08/03 10:43:24;;;;;;;14.27;7.43;;;;;;;20.68;59.80;100731.69;4903690;29;20020;-85
2021/08/03 10:46:09;;;;;;;16.05;8.18;;;;;;;20.29;59.66;100733.31;4904554;29;20024;-85
2021/08/03 10:48:38;;;;;;;16.25;7.35;;;;;;;20.28;59.40;100727.03;4893914;29;20090;-84
2021/08/03 10:51:12;;;;;;;14.52;6.57;;;;;;;20.48;58.71;100731.22;4899152;29;20091;-84
2021/08/03 10:54:11;;;;;;;17.40;7.63;;;;;;;20.57;57.58;100722.44;4927514;29;20043;-85
2021/08/03 10:56:58;;;;;;;13.68;7.22;;;;;;;20.66;56.95;100727.53;4896328;29;20033;-84
2021/08/03 10:59:42;;;;;;;16.40;7.05;;;;;;;20.71;56.14;100711.22;4902046;29;20117;-85
2021/08/03 11:02:10;;;;;;;16.20;8.70;;;;;;;20.83;55.87;100720.22;4884921;29;20021;-86
2021/08/03 11:04:59;;;;;;;16.65;7.68;;;;;;;20.74;57.90;100713.47;4895362;29;20102;-85
2021/08/03 11:07:24;;;;;;;17.98;8.13;;;;;;;20.46;57.88;100717.84;4884653;29;20038;-85
2021/08/03 11:09:50;;;;;;;18.73;8.10;;;;;;;19.98;59.22;100713.56;4913102;29;20033;-85
2021/08/03 11:12:33;;;;;;;15.10;8.02;;;;;;;19.69;59.63;100718.06;4900851;29;20032;-85
2021/08/03 11:14:59;;;;;;;15.73;7.45;;;;;;;19.43;60.28;100730.25;4910209;29;20040;-85
2021/08/03 11:18:01;;;;;;;16.15;7.45;;;;;;;19.76;60.58;100722.31;4896169;29;20025;-84
2021/08/03 11:20:36;;;;;;;16.50;7.40;;;;;;;20.38;58.69;100720.94;4885852;29;20020;-84
2021/08/03 11:23:06;;;;;;;15.65;8.70;;;;;;;20.72;58.24;100707.41;4913438;29;20118;-84
2021/08/03 11:25:32;;;;;;;16.95;8.27;;;;;;;21.00;57.78;100715.59;4899651;29;20120;-84